CheckWX is a tool to help pilots better visualize weather data.  It is not intended as a substitute for an official pre-flight weather briefing.

23:23:59 UTC

KBTA METAR
Blair Municipal Airport
Blair, Nebraska, USA
Current

9 mins ago

KBTA 162315Z AUTO 15012KT 10SM CLR 12/00 A2992 RMK AO2 T01210002
Observed
Nov-16 @ 23:15 UTC
Wind
  • 150° at 12 KTS
Visibility
10 SM
Flight Rules
VFR
Cloud Levels
  • Clear skies
Temperature
12°C / 54°F
Dewpoint
C / 32°F
Humidity
44%
Altimeter
29.92" Hg
Pressure
1013.22 hPa
Previous

29 mins ago

KBTA 162255Z AUTO 15009G15KT 10SM CLR 12/00 A2993 RMK AO2 T01210004
Observed
Nov-16 @ 22:55 UTC
Wind
  • 150° at 9 KTS
  • Gusting to 15 KTS
Visibility
10 SM
Flight Rules
VFR
Cloud Levels
  • Clear skies
Temperature
12°C / 54°F
Dewpoint
C / 32°F
Humidity
44%
Altimeter
29.93" Hg
Pressure
1013.52 hPa
Previous

49 mins ago

KBTA 162235Z AUTO 15011G16KT 10SM CLR 12/01 A2992 RMK AO2 T01210005
Observed
Nov-16 @ 22:35 UTC
Wind
  • 150° at 11 KTS
  • Gusting to 16 KTS
Visibility
10 SM
Flight Rules
VFR
Cloud Levels
  • Clear skies
Temperature
12°C / 54°F
Dewpoint
C / 34°F
Humidity
47%
Altimeter
29.92" Hg
Pressure
1013.22 hPa